WEATHER DATA

TODAY
Time Temp. Dewp. Hum. Bar. 1h Prec. 24h Prec.
00:07 -1.9 -6.1 70 1018.6 0.0000 0.0000
00:17 -2 -6.2 70 1018.4 0.0000 0.0000
00:27 -2.1 -6.5 69 1018.6 0.0000 0.0000
00:38 -2.2 -6.4 70 1018.6 0.0000 0.0000
00:48 -2.3 -6.5 70 1018.5 0.0000 0.0000
00:57 -2.4 -6.6 70 1018.5 0.0000 0.0000
01:08 -2.5 -6.9 69 1018.6 0.0000 0.0000
01:18 -2.5 -6.7 70 1018.6 0.0000 0.0000
01:28 -2.6 -6.8 70 1018.5 0.0000 0.0000
01:38 -2.7 -6.9 70 1018.5 0.0000 0.0000
01:49 -2.8 -7 70 1018.6 0.0000 0.0000
01:58 -2.8 -7 70 1018.6 0.0000 0.0000
02:08 -2.9 -7.2 69 1018.8 0.0000 0.0000
02:18 -3 -7.2 70 1018.9 0.0000 0.0000
02:29 -3.1 -7.3 70 1018.8 0.0000 0.0000
02:39 -3.1 -7.3 70 1018.8 0.0000 0.0000
02:49 -3.2 -7.2 71 1018.7 0.0000 0.0000
02:59 -3.2 -7.2 71 1018.7 0.0000 0.0000
03:09 -3.3 -7.3 71 1018.8 0.0000 0.0000
03:19 -3.4 -7.4 71 1018.9 0.0000 0.0000
03:29 -3.6 -7.6 71 1018.8 0.0000 0.0000
03:40 -3.7 -7.7 71 1018.8 0.0000 0.0000
03:50 -3.8 -7.8 71 1018.9 0.0000 0.0000
03:59 -3.9 -7.7 72 1019.2 0.0000 0.0000
04:10 -4 -8 71 1019.2 0.0000 0.0000
04:20 -4.2 -8.2 71 1019.3 0.0000 0.0000
04:30 -4.3 -8.3 71 1019.2 0.0000 0.0000
04:40 -4.4 -8.4 71 1019.5 0.0000 0.0000
04:50 -4.5 -8.5 71 1019.4 0.0000 0.0000
05:00 -4.6 -8.6 71 1019.5 0.0000 0.0000
05:10 -4.6 -8.6 71 1019.7 0.0000 0.0000
05:20 -4.7 -8.8 70 1019.7 0.0000 0.0000
05:31 -4.8 -8.8 71 1019.8 0.0000 0.0000
05:41 -4.9 -8.8 71 1019.8 0.0000 0.0000
05:50 -5 -8.8 72 1019.9 0.0000 0.0000
06:01 -5.1 -8.9 72 1019.9 0.0000 0.0000
06:11 -5.2 -9 72 1020.1 0.0000 0.0000
06:21 -5.3 -9.1 72 1020.2 0.0000 0.0000
06:31 -5.4 -9 73 1020.2 0.0000 0.0000
06:42 -5.5 -9.3 72 1020.3 0.0000 0.0000
06:51 -5.6 -9.2 73 1020.4 0.0000 0.0000
07:01 -5.7 -9.3 73 1020.5 0.0000 0.0000
07:11 -5.8 -9.4 73 1020.5 0.0000 0.0000
07:22 -5.8 -9.4 73 1020.9 0.0000 0.0000
07:32 -5.9 -9.5 73 1020.9 0.0000 0.0000
07:42 -5.9 -9.4 74 1021.1 0.0000 0.0000
07:52 -6 -9.5 74 1021 0.0000 0.0000
08:02 -6 -9.5 74 1021.1 0.0000 0.0000
08:12 -5.9 -9.4 74 1021.2 0.0000 0.0000
08:22 -5.9 -9.4 74 1021.3 0.0000 0.0000
08:32 -5.9 -9.4 74 1021.3 0.0000 0.0000
08:42 -5.8 -9.4 73 1021.4 0.0000 0.0000
08:52 -5.8 -9.4 73 1021.2 0.0000 0.0000
09:03 -5.7 -9.3 73 1021.3 0.0000 0.0000
09:13 -5.6 -9.2 73 1021.3 0.0000 0.0000
09:23 -5.4 -9.2 72 1021.3 0.0000 0.0000
09:32 -5.3 -9.1 72 1021.5 0.0000 0.0000
09:43 -5.2 -9 72 1021.4 0.0000 0.0000
09:53 -5 -8.9 71 1021.5 0.0000 0.0000
10:03 -4.8 -8.8 71 1021.4 0.0000 0.0000
10:13 -4.7 -9 69 1021.4 0.0000 0.0000
10:24 -4.5 -9 68 1021.4 0.0000 0.0000
10:43 -4.1 -8.2 70 1021.5 0.0000 0.0000
10:54 -3.9 -8 70 1021.3 0.0000 0.0000
11:04 -3.7 -8 69 1021.4 0.0000 0.0000
11:14 -3.5 -8 68 1021.4 0.0000 0.0000
11:24 -3.3 -8 67 1021.6 0.0000 0.0000
11:34 -3 -7.5 68 1021.7 0.0000 0.0000
11:44 -2.9 -7.7 66 1021.8 0.0000 0.0000
11:54 -2.7 -7.9 64 1021.6 0.0000 0.0000
12:05 -2.5 -7.5 65 1021.6 0.0000 0.0000
12:15 -2.4 -7.6 64 1021.6 0.0000 0.0000

DAY STATISTICS

2018-02-25
TEMPERATURE
AVERAGE
-4.2
HIGH
-1.9
00:07
LOW
-6.0
07:52
PRESSURE
AVERAGE
1020.1
HIGH
1021.8
11:44
LOW
1018.4
00:17
DEWPOINT
AVERAGE
-8.2
HIGH
-6.1
00:07
LOW
-9.5
07:32
HUMIDITY
AVERAGE
71
HIGH
74
07:42
LOW
64
11:54
PRECIPITATION
RAIN HOUR
0.0
RAIN DAY
0.0
TEMPERATURE (°C)
LOW
-6.0
HIGH
-1.9
AVERAGE
-4.2
PRESSURE (hpa)
LOW
1018.4
HIGH
1021.8
AVERAGE
1020.1
DEVICE